Add date Part number Description Manufacture PDF
11-29-2015 2SA1306A Toshiba 2SA1306A datasheet
11-29-2015 HT1635 HT1635 44×8 LED Driver Features Holtek HT1635 datasheet
11-29-2015 A1304 SavantIC Semiconductor Silicon PNP SavantIC A1304 datasheet
11-29-2015 2SA1306B Toshiba 2SA1306B datasheet
11-29-2015 2SA1306 INCHANGE Semiconductor isc Silicon INCHANGE 2SA1306 datasheet
11-29-2015 2SA1306A INCHANGE Semiconductor isc Silicon INCHANGE 2SA1306A datasheet
11-29-2015 2SA1306B INCHANGE Semiconductor isc Silicon INCHANGE 2SA1306B datasheet
11-29-2015 29LV320 EN29LV320 EN29LV320 32 Megabit (40 Eon Silicon Solution 29LV320 datasheet
11-29-2015 SB401010K WWWMWW0OWWYCT10WWW.MWW.0O.WW.YCT110 ETC SB401010K datasheet
11-29-2015 SB401010 无锡市方舟科技电子有限 ARK TECHNOLOGY SB401010 datasheet
11-29-2015 MX29LV320T MX29LV320T/B 32M-BIT [4M x 8 / 2M Macronix MX29LV320T datasheet
11-29-2015 MX29LV320B MX29LV320T/B 32M-BIT [4M x 8 / 2M Macronix MX29LV320B datasheet
11-29-2015 B30NF10 STB30NF10 STP30NF10 - STP30NF10FP N STMicroelectronics B30NF10 datasheet
11-29-2015 NJM13001 !!!!!!!!NPN POWER NJM 13001 TRANS MT NJM13001 datasheet
11-29-2015 MBRF3040CT MBRF3040CT THRU MBRF30200CT SCHOTTK GOOD ELECTRONIC MBRF3040CT datasheet
11-29-2015 MBRF3080CT MBRF3040CT THRU MBRF30200CT SCHOTTK GOOD ELECTRONIC MBRF3080CT datasheet
11-29-2015 MBRF3090CT MBRF3040CT THRU MBRF30200CT SCHOTTK GOOD ELECTRONIC MBRF3090CT datasheet
11-29-2015 MBRF3035CT-G SENSITRON SEMICONDUCTOR Technical D SENSITRON SEMICONDUCTOR MBRF3035CT-G datasheet
11-29-2015 MBRF3040CT-G SENSITRON SEMICONDUCTOR Technical D SENSITRON SEMICONDUCTOR MBRF3040CT-G datasheet
11-29-2015 MBRF3045CT-G SENSITRON SEMICONDUCTOR Technical D SENSITRON SEMICONDUCTOR MBRF3045CT-G datasheet
11-29-2015 MBRF3035CT SANGDEST MICROELECTRONICS MBRF3035 SANGDEST MICROELECTRONICS MBRF3035CT datasheet
11-29-2015 MBRF3040CT SANGDEST MICROELECTRONICS MBRF3035 SANGDEST MICROELECTRONICS MBRF3040CT datasheet
11-29-2015 MBRF3045CT SANGDEST MICROELECTRONICS MBRF3035 SANGDEST MICROELECTRONICS MBRF3045CT datasheet
11-29-2015 MBRF3040CT MBRF3040CT THRU MBRF30200CT 30A Hig CITC MBRF3040CT datasheet
11-29-2015 MBRF3045CT MBRF3040CT THRU MBRF30200CT 30A Hig CITC MBRF3045CT datasheet
11-29-2015 MBRF3060CT MBRF3040CT THRU MBRF30200CT 30A Hig CITC MBRF3060CT datasheet
11-29-2015 MBRF3065CT MBRF3040CT THRU MBRF30200CT 30A Hig CITC MBRF3065CT datasheet
11-29-2015 MBRF30100CT MBRF3040CT THRU MBRF30200CT 30A Hig CITC MBRF30100CT datasheet
11-29-2015 MBRF30150CT MBRF3040CT THRU MBRF30200CT 30A Hig CITC MBRF30150CT datasheet
11-29-2015 MBRF30200CT MBRF3040CT THRU MBRF30200CT 30A Hig CITC MBRF30200CT datasheet
11-29-2015 MBRF3040CT Data Sheet Customer: Product : P VIKING TECH MBRF3040CT datasheet
11-29-2015 MBRF3060CT Data Sheet Customer: Product : P VIKING TECH MBRF3060CT datasheet
11-29-2015 MBRF30100CT Data Sheet Customer: Product : P VIKING TECH MBRF30100CT datasheet
11-29-2015 MBRF30150CT Data Sheet Customer: Product : P VIKING TECH MBRF30150CT datasheet
11-29-2015 MBRF30200CT Data Sheet Customer: Product : P VIKING TECH MBRF30200CT datasheet
11-29-2015 MBRF30250CT Data Sheet Customer: Product : P VIKING TECH MBRF30250CT datasheet
11-29-2015 MBRF3060CT SANGDEST MICROELECTRONICS Technical SANGDEST MICROELECTRONICS MBRF3060CT datasheet
11-29-2015 MBR3060CT Features ● Plastic package has un GOOD-ARK MBR3060CT datasheet
11-29-2015 MBRF3060CT Features ● Plastic package has un GOOD-ARK MBRF3060CT datasheet
11-29-2015 MBRF3060CT-G SENSITRON SEMICONDUCTOR MBRF3060CT SENSITRON SEMICONDUCTOR MBRF3060CT-G datasheet
11-29-2015 MBR3060CT SEMICONDUCTOR TECHNICAL DATA MBR30 First Silicon MBR3060CT datasheet
11-29-2015 MBRF3060CT SEMICONDUCTOR TECHNICAL DATA MBR30 First Silicon MBRF3060CT datasheet
11-29-2015 MBRB3060CT SEMICONDUCTOR TECHNICAL DATA MBR30 First Silicon MBRB3060CT datasheet
11-29-2015 MBRF3030CT Production specification Schottky GME MBRF3030CT datasheet
11-29-2015 MBRF3035CT Production specification Schottky GME MBRF3035CT datasheet
11-29-2015 MBRF3040CT Production specification Schottky GME MBRF3040CT datasheet
11-29-2015 MBRF3045CT Production specification Schottky GME MBRF3045CT datasheet
11-29-2015 MBRF3050CT Production specification Schottky GME MBRF3050CT datasheet
11-29-2015 MBRF3060CT Production specification Schottky GME MBRF3060CT datasheet
11-29-2015 MBRF3080CT Production specification Schottky GME MBRF3080CT datasheet
11-29-2015 MBRF30100CT Production specification Schottky GME MBRF30100CT datasheet
11-29-2015 BR2CK3060CTF MBRF3060CT(BR2CK3060CTF) Rev.C Feb. BLUE ROCKET ELECTRONICS BR2CK3060CTF datasheet
11-29-2015 MBRF3045CT-Y MBRF3045CT-Y thru MBRF30150CT-Y Tai Taiwan Semiconductor MBRF3045CT-Y datasheet
11-29-2015 MBRF3060CT-Y MBRF3045CT-Y thru MBRF30150CT-Y Tai Taiwan Semiconductor MBRF3060CT-Y datasheet
11-29-2015 MBRF3080CT-Y MBRF3045CT-Y thru MBRF30150CT-Y Tai Taiwan Semiconductor MBRF3080CT-Y datasheet
11-29-2015 MBRF30100CT-Y MBRF3045CT-Y thru MBRF30150CT-Y Tai Taiwan Semiconductor MBRF30100CT-Y datasheet
11-29-2015 MBRF30150CT-Y MBRF3045CT-Y thru MBRF30150CT-Y Tai Taiwan Semiconductor MBRF30150CT-Y datasheet
11-29-2015 MBRF30200CT-Y MBRF3045CT-Y thru MBRF30150CT-Y Tai Taiwan Semiconductor MBRF30200CT-Y datasheet
11-29-2015 MBRF30100CT SCHOTTKY BARRIER RECTIFIER MBRF301 LITE-ON MBRF30100CT datasheet
11-29-2015 MBR30100CT MBR30100CT / MBRF30100CT Green 30A Diodes MBR30100CT datasheet
11-29-2015 MBRF30100CT MBR30100CT / MBRF30100CT Green 30A Diodes MBRF30100CT datasheet
11-29-2015 MBRF30100CT MBRF30100CT Technical Data Data Sh SMC MBRF30100CT datasheet
11-29-2015 MBR30100CT MBR30100CT/MBRF30100CT Schottky Bar GOOD-ARK MBR30100CT datasheet
11-29-2015 MBRF30100CT MBR30100CT/MBRF30100CT Schottky Bar GOOD-ARK MBRF30100CT datasheet
11-29-2015 MBRF30100CT SENSITRON SEMICONDUCTOR MBRF30100C SENSITRON SEMICONDUCTOR MBRF30100CT datasheet
11-29-2015 MBRF30150CT SANGDEST MICROELECTRONICS MBRF3015 SANGDEST MICROELECTRONICS MBRF30150CT datasheet
11-29-2015 MBRF30150CT Production specification Schottky GME MBRF30150CT datasheet
11-29-2015 MBRF30200CT Production specification Schottky GME MBRF30200CT datasheet
11-29-2015 MBRF30150CT mon de 3 node K de Cathode 3 e Sch Littelfuse MBRF30150CT datasheet
11-29-2015 MBRF3035CT MBRF3035CT - MBRF30150CT Isolated 3 Taiwan Semiconductor MBRF3035CT datasheet
11-29-2015 MBRF3045CT MBRF3035CT - MBRF30150CT Isolated 3 Taiwan Semiconductor MBRF3045CT datasheet
11-29-2015 MBRF3050CT MBRF3035CT - MBRF30150CT Isolated 3 Taiwan Semiconductor MBRF3050CT datasheet
11-29-2015 MBRF3060CT MBRF3035CT - MBRF30150CT Isolated 3 Taiwan Semiconductor MBRF3060CT datasheet
11-29-2015 MBRF3090CT MBRF3035CT - MBRF30150CT Isolated 3 Taiwan Semiconductor MBRF3090CT datasheet
11-29-2015 MBRF30100CT MBRF3035CT - MBRF30150CT Isolated 3 Taiwan Semiconductor MBRF30100CT datasheet
11-29-2015 MBRF30150CT MBRF3035CT - MBRF30150CT Isolated 3 Taiwan Semiconductor MBRF30150CT datasheet
11-29-2015 MBRF30100CT SEMICONDUCTOR TECHNICAL DATA MBRF3 KEC MBRF30100CT datasheet
11-29-2015 MBRF30150CT SENSITRON SEMICONDUCTOR MBRF30150C SENSITRON SEMICONDUCTOR MBRF30150CT datasheet
11-29-2015 MBRF30150CT MBRF30150CT Dual High Voltage Schot HUAKE MBRF30150CT datasheet
11-29-2015 MBRF3020CT MBRF3020CT THRU MBRF30200CT 30 AMP GOOD ELECTRONIC MBRF3020CT datasheet
11-29-2015 MBRF3040CT MBRF3020CT THRU MBRF30200CT 30 AMP GOOD ELECTRONIC MBRF3040CT datasheet
11-29-2015 MBRF3045CT MBRF3020CT THRU MBRF30200CT 30 AMP GOOD ELECTRONIC MBRF3045CT datasheet
11-29-2015 MBRF3050CT MBRF3020CT THRU MBRF30200CT 30 AMP GOOD ELECTRONIC MBRF3050CT datasheet
11-29-2015 MBRF3060CT MBRF3020CT THRU MBRF30200CT 30 AMP GOOD ELECTRONIC MBRF3060CT datasheet
11-29-2015 MBRF3080CT MBRF3020CT THRU MBRF30200CT 30 AMP GOOD ELECTRONIC MBRF3080CT datasheet
11-29-2015 MBRF30100CT MBRF3020CT THRU MBRF30200CT 30 AMP GOOD ELECTRONIC MBRF30100CT datasheet
11-29-2015 MBRF30150CT MBRF3020CT THRU MBRF30200CT 30 AMP GOOD ELECTRONIC MBRF30150CT datasheet
11-29-2015 MBRF30200CT MBRF3020CT THRU MBRF30200CT 30 AMP GOOD ELECTRONIC MBRF30200CT datasheet
11-29-2015 MBRF30200CT MBRF30200CT Product profile Dual Co Bruckewell MBRF30200CT datasheet
11-29-2015 MBRF30200CT SANGDEST MICROELECTRONICS Technical SANGDEST MICROELECTRONICS MBRF30200CT datasheet
11-29-2015 MBRF30200CT SENSITRON SEMICONDUCTOR Technical D SENSITRON SEMICONDUCTOR MBRF30200CT datasheet
11-29-2015 MBRF30200CT MBRF30200CT Dual High Voltage Schot HUAKE MBRF30200CT datasheet
11-29-2015 MBRF4040CT Data Sheet Customer: Product : P VIKING TECH MBRF4040CT datasheet
11-29-2015 MBRF4060CT Data Sheet Customer: Product : P VIKING TECH MBRF4060CT datasheet
11-29-2015 MBRF40100CT Data Sheet Customer: Product : P VIKING TECH MBRF40100CT datasheet
11-29-2015 MBRF40150CT Data Sheet Customer: Product : P VIKING TECH MBRF40150CT datasheet
11-29-2015 MBRF40200CT Data Sheet Customer: Product : P VIKING TECH MBRF40200CT datasheet
11-29-2015 MBRF40250CT Data Sheet Customer: Product : P VIKING TECH MBRF40250CT datasheet
11-29-2015 MBRF4060CT SANGDEST MICROELECTRONICS MBRF4060 SANGDEST MICROELECTRONICS MBRF4060CT datasheet
11-29-2015 MBRF4080CT SENSITRON SEMICONDUCTOR Technical D SENSITRON SEMICONDUCTOR MBRF4080CT datasheet
11-29-2015 MBRF4090CT SENSITRON SEMICONDUCTOR Technical D SENSITRON SEMICONDUCTOR MBRF4090CT datasheet
11-29-2015 MBRF40100CT SENSITRON SEMICONDUCTOR Technical D SENSITRON SEMICONDUCTOR MBRF40100CT datasheet
11-29-2015 MBRF4080CT SANGDEST MICROELECTRONICS MBRF4080 SANGDEST MICROELECTRONICS MBRF4080CT datasheet
11-29-2015 MBRF4090CT SANGDEST MICROELECTRONICS MBRF4080 SANGDEST MICROELECTRONICS MBRF4090CT datasheet
11-29-2015 MBRF40100CT SANGDEST MICROELECTRONICS MBRF4080 SANGDEST MICROELECTRONICS MBRF40100CT datasheet
11-29-2015 MBR40100CT SEMICONDUCTOR MBR40100CT Series RR Nell Semiconductors MBR40100CT datasheet
11-29-2015 MBRF40150CT SANGDEST MICROELECTRONICS Technical SANGDEST MICROELECTRONICS MBRF40150CT datasheet
11-29-2015 MBRF40200CT SANGDEST MICROELECTRONICS Technical SANGDEST MICROELECTRONICS MBRF40200CT datasheet
11-29-2015 74AUP2G34 74AUP2G34 Low-power dual buffer Rev NXP 74AUP2G34 datasheet
11-29-2015 74AVCH8T245 74AVCH8T245 8-bit dual supply tran NXP 74AVCH8T245 datasheet
11-29-2015 HT1635A HT1635A/HT1635B 44×8 LED Driver F Holtek HT1635A datasheet
11-29-2015 HT1635B HT1635A/HT1635B 44×8 LED Driver F Holtek HT1635B datasheet
11-29-2015 AM2320 Digital Temperature and Humidity Se Aosong AM2320 datasheet
11-29-2015 NT96655 NT96655 CONFIDENTIAL NT96655 Hybr Novatek NT96655 datasheet
11-29-2015 TW2968 8-Channel WD1 (960H)/D1 Compatible Intersil TW2968 datasheet
11-29-2015 DM5866 DM5866 960H and 720H 4 channels NTS DAVICOM DM5866 datasheet
11-29-2015 NVP1918 NVP1918 8-CH 960H Video Decoders an Nextchip NVP1918 datasheet
11-29-2015 TW2965 4-CH WD1 (960H)/D1 Compatible Video Intersil TW2965 datasheet


The site has been moved : DatasheetsPDF.com
Since 2005 - HOME - Link US - All - Privacy Policy & Contact Us -